Terminal Aerodrome Forecast
Issued by NWS

Home | Current Version | Previous Version | Text Only | Print | Product List | Glossary On
Versions: 1 2 3 4 5 6 7 8 9 10 11 12
000
FTUS45 KRIW 230522
TAFPNA
TAF
KPNA 230522Z 2306/2406 30006KT P6SM SCT120
     FM231800 VRB06KT P6SM VCSH SCT100 BKN150
     FM231930 VRB08G15KT P6SM VCTS SCT060CB BKN100
     FM240200 30007KT P6SM VCSH SCT080 BKN120
     FM240400 30007KT P6SM SCT100 BKN150
      AMD LTD TO CLD VIS AND WIND=

USA.gov is the U.S. government's official web portal to all federal, state and local government web resources and services.